Saint-Hubert, Canada
Current Conditions -  °F | °C
As of 3:00 PM on Friday 21 Nov 2014 (Local Time) from CYHU Reporting Station
Clear Clear  
Wind Chill:   Ceiling: Unl
Heat Index: 23°   Visibility: 9mi
Dew Point:   Wind: 22mph
Humidity: 46%   Direction: 260°W
Pressure: 30.24"   Gusts: NA
Location:  45.5°N, 73.47°W
Report Text: CYHU 212000Z AUTO 26019KT 9SM CLR M05/M15 A3024 RMK SLP240
Loading
Personal Weather Stations






























Interactive Weather Map New forecast layout! Learn more

10-Day Weather Forecast

Advertisements
Track Severe Weather on mobile